»·PEaware :: EAW3485 KPHX-KTUS

EAW3485 :: KPHX-KTUS

FLIGHT INFORMATION

Flight Status: Arrived
Operator: Unknown
More flights by this operator :: More flights under this callsign
Pilot: Dave P. (45)
Aircraft: DEHAVILLAND DASH 8 400
(DH8D)
More flights by this aircraft type
Origin: KPHX Phoenix Sky Harbor Intl
United States
Destination: KTUS Tucson Intl
United States
More flights between these airports :: More routes between these airports
Route: STRRM1 STRRM BASER DINGO DINGO5
File this flight plan on PilotEdge
Remarks: EAW = Eagle Airways, callsign 'Eagle'
Altitude:
(Current/Filed)
17,000ft
Speed:
(Current/Filed)
321kts
Departed: 25-May-19 08:37 AM
Arrived: 25-May-19 09:05 AM
Distance/Time
Traveled:
96nm/0:28
Distance/Time
To Go:
Arrived

Flight Plot

Page will automatically refresh every two minutes.

Flight plan parsing failed; only flown route is shown


Map Options




Map Legend


Flown Route
Filed Route
Departure Airport
Arrival Airport
Navaid (VOR, NDB)
Fix

Horizontal Profiles

Position Reports

Time Latitude Longitude Heading Altitude Ground
Speed
25-May-19 07:40 33.435245 -112.011289 236 1142ft 0kts
25-May-19 07:41 33.435245 -112.011289 236 1142ft 0kts
25-May-19 07:42 33.435245 -112.011289 236 1142ft 0kts
25-May-19 07:43 33.435245 -112.011289 236 1142ft 0kts
25-May-19 07:44 33.435245 -112.011289 236 1142ft 0kts
25-May-19 07:45 33.435245 -112.011289 236 1142ft 0kts
25-May-19 07:46 33.435245 -112.011289 236 1142ft 0kts
25-May-19 07:47 33.435245 -112.011289 236 1142ft 0kts
25-May-19 07:48 33.435245 -112.011289 236 1142ft 0kts
25-May-19 07:49 33.435245 -112.011289 236 1142ft 0kts
25-May-19 07:50 33.435245 -112.011289 236 1142ft 0kts
25-May-19 07:51 33.435245 -112.011289 236 1142ft 0kts
25-May-19 07:52 33.435245 -112.011289 236 1142ft 0kts
25-May-19 07:53 33.435245 -112.011289 236 1142ft 0kts
25-May-19 07:54 33.435245 -112.011289 236 1142ft 0kts
25-May-19 07:55 33.435245 -112.011289 236 1142ft 0kts
25-May-19 07:56 33.435245 -112.011289 236 1142ft 0kts
25-May-19 07:57 33.435245 -112.011289 236 1142ft 0kts
25-May-19 07:58 33.435245 -112.011289 236 1142ft 0kts
25-May-19 07:59 33.435245 -112.011289 236 1142ft 0kts
25-May-19 08:00 33.435245 -112.011289 236 1142ft 0kts
25-May-19 08:01 33.435245 -112.011289 236 1142ft 0kts
25-May-19 08:02 33.435246 -112.011290 236 1142ft 0kts
25-May-19 08:03 33.435246 -112.011290 236 1142ft 0kts
25-May-19 08:04 33.435246 -112.011290 236 1142ft 0kts
25-May-19 08:05 33.435246 -112.011290 236 1142ft 0kts
25-May-19 08:06 33.435246 -112.011290 236 1142ft 0kts
25-May-19 08:07 33.435246 -112.011290 236 1142ft 0kts
25-May-19 08:08 33.435246 -112.011290 236 1142ft 0kts
25-May-19 08:09 33.435246 -112.011290 236 1142ft 0kts
25-May-19 08:10 33.435246 -112.011290 236 1142ft 0kts
25-May-19 08:11 33.435246 -112.011290 236 1142ft 0kts
25-May-19 08:12 33.435246 -112.011290 236 1142ft 0kts
25-May-19 08:13 33.435246 -112.011290 236 1142ft 0kts
25-May-19 08:14 33.435246 -112.011290 236 1142ft 0kts
25-May-19 08:15 33.435246 -112.011290 236 1142ft 0kts
25-May-19 08:16 33.435246 -112.011290 236 1142ft 0kts
25-May-19 08:17 33.435246 -112.011290 236 1142ft 0kts
25-May-19 08:18 33.435246 -112.011290 236 1142ft 0kts
25-May-19 08:19 33.435246 -112.011290 236 1142ft 0kts
25-May-19 08:20 33.435246 -112.011290 236 1142ft 0kts
25-May-19 08:21 33.435246 -112.011290 236 1142ft 0kts
25-May-19 08:22 33.435246 -112.011290 236 1142ft 0kts
25-May-19 08:23 33.435246 -112.011290 236 1142ft 0kts
25-May-19 08:24 33.435246 -112.011290 236 1142ft 0kts
25-May-19 08:25 33.435246 -112.011290 236 1142ft 0kts
25-May-19 08:26 33.435246 -112.011290 236 1142ft 0kts
25-May-19 08:27 33.435246 -112.011290 236 1142ft 0kts
25-May-19 08:28 33.435246 -112.011290 236 1142ft 0kts
25-May-19 08:29 33.435246 -112.011290 236 1142ft 0kts
25-May-19 08:30 33.435233 -112.011311 236 1142ft 2kts
25-May-19 08:31 33.432849 -112.012943 262 1142ft 13kts
25-May-19 08:32 33.432836 -112.020869 269 1142ft 26kts
25-May-19 08:33 33.432657 -112.026904 211 1142ft 3kts
25-May-19 08:34 33.432643 -112.026912 209 1142ft 0kts
25-May-19 08:35 33.431409 -112.026992 179 1142ft 10kts
25-May-19 08:36 33.431087 -112.000086 88 1573ft 154kts
25-May-19 08:37 33.434714 -111.935379 87 3461ft 216kts
25-May-19 08:38 33.401452 -111.884858 180 5883ft 229kts
25-May-19 08:39 33.337932 -111.896951 188 8263ft 233kts
25-May-19 08:40 33.273390 -111.910160 188 10439ft 233kts
25-May-19 08:41 33.210441 -111.922424 190 12568ft 228kts
25-May-19 08:42 33.147296 -111.935246 191 14245ft 232kts
25-May-19 08:43 33.083190 -111.948539 191 15801ft 236kts
25-May-19 08:44 33.017631 -111.962136 190 16936ft 250kts
25-May-19 08:45 32.944877 -111.938720 163 17030ft 293kts
25-May-19 08:46 32.868723 -111.895516 151 17036ft 316kts
25-May-19 08:47 32.795963 -111.834228 150 17035ft 325kts
25-May-19 08:48 32.721837 -111.772827 150 17037ft 327kts
25-May-19 08:49 32.650172 -111.713665 151 15188ft 290kts
25-May-19 08:50 32.590330 -111.664101 152 13738ft 237kts
25-May-19 08:51 32.543527 -111.619312 136 12568ft 202kts
25-May-19 08:52 32.508602 -111.565538 134 11533ft 239kts
25-May-19 08:53 32.475253 -111.488426 120 11006ft 268kts
25-May-19 08:54 32.442485 -111.409783 120 10128ft 264kts
25-May-19 08:55 32.408448 -111.333349 120 9239ft 260kts
25-May-19 08:56 32.374370 -111.258676 124 8414ft 257kts
25-May-19 08:57 32.331020 -111.193618 133 7484ft 232kts
25-May-19 08:58 32.289534 -111.142604 136 6023ft 194kts
25-May-19 08:59 32.252122 -111.098894 136 5993ft 190kts
25-May-19 09:00 32.214400 -111.054828 137 5131ft 196kts
25-May-19 09:01 32.178087 -111.011114 135 4127ft 167kts
25-May-19 09:02 32.148105 -110.976795 135 3205ft 146kts
25-May-19 09:03 32.119432 -110.943325 134 2651ft 128kts
25-May-19 09:04 32.115624 -110.937879 43 2650ft 0kts
25-May-19 09:05 32.117992 -110.940005 315 2650ft 15kts
25-May-19 09:06 32.120790 -110.942072 5 2650ft 12kts
25-May-19 09:07 32.121182 -110.939155 162 2650ft 10kts
25-May-19 09:08 32.120756 -110.939009 162 2650ft 0kts
25-May-19 09:09 32.120756 -110.939009 162 2650ft 0kts
25-May-19 09:10 32.120756 -110.939009 162 2650ft 0kts
25-May-19 09:11 32.120756 -110.939009 162 2650ft 0kts
25-May-19 09:12 32.120756 -110.939009 162 2650ft 0kts

Navigation Log

Ident Type
Flight plan parsing failed, navigation log unavailable